Auburn, CA

12:42 PM PST on November 15, 2019 (GMT -0800)
Auburn Municipal

Weather History for KAUN - September, 2019

Change the Weather History Date:

Monday, September 16, 2019

  Actual Average Record
Temperature  
Mean Temperature 62 °F -  
Max Temperature 68 °F 83 °F 103 °F (1971)
Min Temperature 55 °F 57 °F 44 °F (2006)
Degree Days  
Heating Degree Days 4    
Growing Degree Days 12 (Base 50)    
Moisture  
Dew Point 54 °F    
Average Humidity 84    
Maximum Humidity 100    
Minimum Humidity 56    
Precipitation  
Precipitation 0.83 in - - ()
Sea Level Pressure  
Sea Level Pressure 29.94 in    
Wind  
Wind Speed 9 mph ()    
Max Wind Speed 16 mph    
Max Gust Speed 25 mph    
Visibility 8.4 miles    
Events      
Averages and records for this station are not official NWS values.
T = Trace of Precipitation, MM = Missing Value Source: Averaged Metar Reports

Daily Weather History Graph

Daily Weather History Graph

Search for Another Location

Airport or City:

Astronomy

Sep. 16, 2019 Rise Set
Actual Time 6:46 AM PDT 7:11 PM PDT
Civil Twilight 6:19 AM PDT 7:37 PM PDT
Nautical Twilight 5:48 AM PDT 8:09 PM PDT
Astronomical Twilight 5:16 AM PDT 8:41 PM PDT
Moon 8:49 PM PDT (9/16) 8:57 AM PDT (9/16)
Length of Visible Light 13h 18m
Length of Day
12h 24m
Waning Gibbous, 94% of the Moon is Illuminated
Sep 16
Waning Gibbous
Sep 21
Last Quarter
Sep 28
New
Oct 5
First Quarter
Oct 13
Full

Hourly Weather History & Observations

Time (PDT) Temp. Dew Point Humidity Pressure Visibility Wind Dir Wind Speed Gust Speed Precip Events Conditions
12:15 AM 62.6 °F 53.6 °F 72% 29.86 in 10.0 mi SE 8.1 mph 13.8 mph N/A   Clear
12:55 AM 60.8 °F 53.6 °F 77% 29.85 in 10.0 mi SE 12.7 mph - N/A   Clear
1:15 AM 60.8 °F 55.4 °F 82% 29.86 in 10.0 mi SE 11.5 mph - N/A   Clear
1:35 AM 60.8 °F 57.2 °F 88% 29.86 in 10.0 mi SSE 11.5 mph - N/A   Clear
1:55 AM 60.8 °F 57.2 °F 88% 29.86 in 10.0 mi SSE 12.7 mph - N/A   Scattered Clouds
2:15 AM 60.8 °F 57.2 °F 88% 29.87 in 10.0 mi SSE 10.4 mph 18.4 mph N/A   Overcast
2:35 AM 60.8 °F 57.2 °F 88% 29.87 in 10.0 mi SSE 10.4 mph - N/A   Overcast
2:55 AM 60.8 °F 59.0 °F 94% 29.87 in 10.0 mi SSE 10.4 mph 17.3 mph N/A   Overcast
3:15 AM 60.8 °F 59.0 °F 94% 29.87 in 10.0 mi SSE 6.9 mph 13.8 mph N/A   Overcast
3:35 AM 60.8 °F 59.0 °F 94% 29.88 in 10.0 mi SSE 8.1 mph - N/A   Overcast
3:55 AM 60.8 °F 59.0 °F 94% 29.88 in 7.0 mi SE 8.1 mph - N/A   Overcast
4:15 AM 60.8 °F 59.0 °F 94% 29.87 in 7.0 mi ESE 8.1 mph - N/A   Overcast
4:35 AM 60.8 °F 59.0 °F 94% 29.87 in 9.0 mi SE 10.4 mph - N/A   Overcast
4:55 AM 60.8 °F 59.0 °F 94% 29.88 in 10.0 mi ESE 6.9 mph - N/A   Overcast
5:15 AM 60.8 °F 57.2 °F 88% 29.87 in 10.0 mi ESE 8.1 mph 15.0 mph N/A   Overcast
5:35 AM 60.8 °F 57.2 °F 88% 29.89 in 10.0 mi SE 6.9 mph - N/A   Overcast
5:55 AM 60.8 °F 57.2 °F 88% 29.88 in 10.0 mi SE 9.2 mph - N/A   Overcast
6:15 AM 60.8 °F 57.2 °F 88% 29.88 in 10.0 mi SE 8.1 mph - N/A   Overcast
6:35 AM 60.8 °F 57.2 °F 88% 29.88 in 10.0 mi SE 10.4 mph - N/A   Overcast
6:55 AM 60.8 °F 57.2 °F 88% 29.89 in 5.0 mi SSE 8.1 mph - N/A   Overcast
7:15 AM 60.8 °F 59.0 °F 94% 29.88 in 2.0 mi SE 8.1 mph - N/A   Overcast
7:35 AM 60.8 °F 59.0 °F 94% 29.88 in 3.0 mi SE 9.2 mph 15.0 mph N/A   Overcast
7:55 AM 60.8 °F 59.0 °F 94% 29.88 in 2.5 mi SSE 9.2 mph - N/A   Overcast
8:15 AM 60.8 °F 59.0 °F 94% 29.87 in 2.5 mi SSE 4.6 mph - N/A   Overcast
8:35 AM 60.8 °F 59.0 °F 94% 29.87 in 2.0 mi South 8.1 mph - N/A   Overcast
8:55 AM 60.8 °F 60.8 °F 100% 29.88 in 0.8 mi SW 16.1 mph 23.0 mph 0.27 in   Overcast
9:15 AM 57.2 °F 55.4 °F 94% 29.89 in 1.0 mi WSW 13.8 mph 25.3 mph N/A   Overcast
9:35 AM 57.2 °F 55.4 °F 94% 29.91 in 2.0 mi SW 10.4 mph - N/A   Overcast
9:55 AM 57.2 °F 55.4 °F 94% 29.90 in 2.5 mi WSW 10.4 mph - 0.27 in   Mostly Cloudy
10:15 AM 55.4 °F 53.6 °F 94% 29.90 in 2.5 mi SW 6.9 mph - N/A   Mostly Cloudy
10:35 AM 55.4 °F 53.6 °F 94% 29.91 in 3.0 mi Calm Calm - N/A   Mostly Cloudy
10:55 AM 57.2 °F 55.4 °F 94% 29.93 in 9.0 mi South 10.4 mph - 0.06 in   Mostly Cloudy
11:15 AM 57.2 °F 55.4 °F 94% 29.93 in 9.0 mi SSE 8.1 mph - N/A   Overcast
11:35 AM 57.2 °F 57.2 °F 100% 29.95 in 10.0 mi Calm Calm - N/A   Overcast
11:55 AM 57.2 °F 55.4 °F 94% 29.96 in 10.0 mi SSE 8.1 mph - N/A   Overcast
12:15 PM 60.8 °F 57.2 °F 88% 29.96 in 10.0 mi Calm Calm - N/A   Mostly Cloudy
12:35 PM 60.8 °F 57.2 °F 88% 29.96 in 10.0 mi SE 5.8 mph - N/A   Overcast
12:55 PM 60.8 °F 55.4 °F 82% 29.97 in 10.0 mi SE 8.1 mph - N/A   Overcast
1:15 PM 60.8 °F 55.4 °F 82% 29.98 in 10.0 mi SE 11.5 mph - N/A   Overcast
1:35 PM 62.6 °F 55.4 °F 77% 29.97 in 10.0 mi SE 11.5 mph - N/A   Mostly Cloudy
1:55 PM 62.6 °F 55.4 °F 77% 29.97 in 10.0 mi SE 12.7 mph - N/A   Partly Cloudy
2:15 PM 64.4 °F 53.6 °F 68% 29.97 in 10.0 mi SE 11.5 mph 17.3 mph N/A   Partly Cloudy
2:35 PM 66.2 °F 53.6 °F 64% 29.98 in 10.0 mi SE 12.7 mph - N/A   Scattered Clouds
2:55 PM 66.2 °F 53.6 °F 64% 29.97 in 10.0 mi SE 11.5 mph - N/A   Scattered Clouds
3:15 PM 66.2 °F 53.6 °F 64% 29.97 in 10.0 mi ESE 13.8 mph - N/A   Partly Cloudy
3:35 PM 68.0 °F 51.8 °F 56% 29.97 in 10.0 mi SE 6.9 mph 15.0 mph N/A   Scattered Clouds
3:55 PM 66.2 °F 51.8 °F 60% 29.98 in 10.0 mi SE 9.2 mph 16.1 mph N/A   Partly Cloudy
4:15 PM 68.0 °F 51.8 °F 56% 29.97 in 10.0 mi East 9.2 mph - N/A   Clear
4:35 PM 66.2 °F 50.0 °F 56% 29.98 in 10.0 mi Variable 6.9 mph - N/A   Partly Cloudy
4:55 PM 60.8 °F 46.4 °F 59% 29.98 in 10.0 mi ENE 12.7 mph 20.7 mph N/A   Mostly Cloudy
5:15 PM 57.2 °F 50.0 °F 77% 29.99 in 7.0 mi NE 11.5 mph 21.9 mph N/A   Overcast
5:35 PM 55.4 °F 50.0 °F 82% 30.00 in 1.2 mi East 8.1 mph 16.1 mph N/A   Haze
5:55 PM 55.4 °F 51.8 °F 88% 29.99 in 9.0 mi East 8.1 mph 15.0 mph 0.23 in   Mostly Cloudy
6:15 PM 55.4 °F 51.8 °F 88% 29.99 in 10.0 mi East 15.0 mph - N/A   Overcast
6:35 PM 55.4 °F 51.8 °F 88% 29.99 in 10.0 mi East 13.8 mph - N/A   Overcast
6:55 PM 55.4 °F 50.0 °F 82% 29.99 in 10.0 mi East 12.7 mph 18.4 mph N/A   Partly Cloudy
7:15 PM 55.4 °F 50.0 °F 82% 29.99 in 10.0 mi East 11.5 mph - N/A   Clear
7:35 PM 55.4 °F 50.0 °F 82% 29.99 in 10.0 mi East 12.7 mph - N/A   Clear
7:55 PM 55.4 °F 48.2 °F 77% 29.99 in 10.0 mi East 11.5 mph - N/A   Clear
8:35 PM 55.4 °F 50.0 °F 82% 29.99 in 10.0 mi East 11.5 mph - N/A   Clear
8:55 PM 55.4 °F 50.0 °F 82% 29.99 in 10.0 mi East 12.7 mph - N/A   Clear
9:15 PM 55.4 °F 50.0 °F 82% 30.00 in 10.0 mi East 9.2 mph - N/A   Clear
9:35 PM 55.4 °F 50.0 °F 82% 30.01 in 10.0 mi East 10.4 mph - N/A   Mostly Cloudy
9:55 PM 55.4 °F 50.0 °F 82% 30.01 in 10.0 mi East 10.4 mph - N/A   Overcast
10:15 PM 55.4 °F 50.0 °F 82% 30.01 in 10.0 mi East 11.5 mph - N/A   Overcast
10:35 PM 55.4 °F 48.2 °F 77% 30.01 in 10.0 mi East 9.2 mph - N/A   Mostly Cloudy
10:55 PM 55.4 °F 48.2 °F 77% 30.01 in 10.0 mi East 8.1 mph - N/A   Partly Cloudy
11:15 PM 55.4 °F 48.2 °F 77% 30.01 in 10.0 mi East 8.1 mph - N/A   Scattered Clouds
11:35 PM 55.4 °F 48.2 °F 77% 30.01 in 10.0 mi East 8.1 mph - N/A   Partly Cloudy
11:55 PM 55.4 °F 48.2 °F 77% 30.01 in 10.0 mi East 8.1 mph - N/A   Clear